createdAt,value
2022-07-26T00:02:20.436Z,6.97
2022-07-26T00:06:25.970Z,6.97
2022-07-26T00:10:34.057Z,6.68
2022-07-26T00:14:39.552Z,6.80
2022-07-26T00:18:47.733Z,7.22
2022-07-26T00:22:53.081Z,6.95
2022-07-26T00:27:01.153Z,8.15
2022-07-26T00:31:06.839Z,7.10
2022-07-26T00:35:12.797Z,7.32
2022-07-26T00:39:18.144Z,7.35
2022-07-26T00:43:26.141Z,7.45
2022-07-26T00:47:31.481Z,6.97
2022-07-26T00:51:36.879Z,6.72
2022-07-26T00:55:42.613Z,6.75
2022-07-26T00:59:51.072Z,7.22
2022-07-26T01:03:57.510Z,6.75
2022-07-26T01:08:03.063Z,6.60
2022-07-26T01:12:09.135Z,6.95
2022-07-26T01:16:17.298Z,6.45
2022-07-26T01:20:22.865Z,6.18
2022-07-26T01:24:30.951Z,7.03
2022-07-26T01:28:40.548Z,6.30
2022-07-26T01:32:45.906Z,6.00
2022-07-26T01:36:51.649Z,7.03
2022-07-26T01:40:59.598Z,6.57
2022-07-26T01:45:05.349Z,7.25
2022-07-26T01:49:11.186Z,6.82
2022-07-26T01:53:16.583Z,6.30
2022-07-26T01:57:24.528Z,6.07
2022-07-26T02:01:39.384Z,6.90
2022-07-26T02:05:45.526Z,6.43
2022-07-26T02:09:50.917Z,6.70
2022-07-26T02:14:00.702Z,7.32
2022-07-26T02:18:06.139Z,6.93
2022-07-26T02:22:11.696Z,7.15
2022-07-26T02:26:17.140Z,6.93
2022-07-26T02:30:25.412Z,6.78
2022-07-26T02:34:33.815Z,6.82
2022-07-26T02:38:39.499Z,7.00
2022-07-26T02:42:44.913Z,7.40
2022-07-26T02:46:53.078Z,6.95
2022-07-26T02:50:58.471Z,7.65
2022-07-26T02:55:03.903Z,8.32
2022-07-26T02:59:10.391Z,7.75
2022-07-26T03:03:18.493Z,7.80
2022-07-26T03:07:23.827Z,7.35
2022-07-26T03:11:29.214Z,7.68
2022-07-26T03:15:34.728Z,7.97
2022-07-26T03:19:42.706Z,7.57
2022-07-26T03:23:48.080Z,7.63
2022-07-26T03:27:53.495Z,8.00
2022-07-26T03:31:59.481Z,8.10
2022-07-26T03:36:11.463Z,7.75
2022-07-26T03:40:21.425Z,7.35
2022-07-26T03:44:26.855Z,7.75
2022-07-26T03:48:34.009Z,7.80
2022-07-26T03:52:42.278Z,8.85
2022-07-26T03:56:47.730Z,9.18
2022-07-26T04:00:53.224Z,8.38
2022-07-26T04:04:59.229Z,7.78
2022-07-26T04:09:08.188Z,8.05
2022-07-26T04:13:13.564Z,7.90
2022-07-26T04:17:19.007Z,7.97
2022-07-26T04:21:24.770Z,8.10
2022-07-26T04:25:40.686Z,7.78
2022-07-26T04:29:46.543Z,7.70
2022-07-26T04:33:51.952Z,7.63
2022-07-26T04:37:57.361Z,7.88
2022-07-26T04:42:05.356Z,8.05
2022-07-26T04:46:10.941Z,8.27
2022-07-26T04:50:16.727Z,7.55
2022-07-26T04:54:23.332Z,7.45
2022-07-26T04:58:31.449Z,8.52
2022-07-26T05:02:36.986Z,9.15
2022-07-26T05:06:43.477Z,7.38
2022-07-26T05:10:54.752Z,7.53
2022-07-26T05:15:04.398Z,7.60
2022-07-26T05:19:10.347Z,7.90
2022-07-26T05:23:16.965Z,8.73
2022-07-26T05:27:22.338Z,7.93
2022-07-26T05:31:30.624Z,7.47
2022-07-26T05:35:37.427Z,8.55
2022-07-26T05:39:43.174Z,7.85
2022-07-26T05:43:50.382Z,7.97
2022-07-26T05:47:58.676Z,8.30
2022-07-26T05:52:04.091Z,8.02
2022-07-26T05:56:10.403Z,8.18
2022-07-26T06:00:18.021Z,8.88
2022-07-26T06:04:26.706Z,7.82
2022-07-26T06:08:34.873Z,7.93
2022-07-26T06:12:41.558Z,8.52
2022-07-26T06:16:46.999Z,8.18
2022-07-26T06:20:56.004Z,7.85
2022-07-26T06:25:09.255Z,8.73
2022-07-26T06:29:14.688Z,7.90
2022-07-26T06:33:21.427Z,7.53
2022-07-26T06:37:29.615Z,8.55
2022-07-26T06:41:34.983Z,7.65
2022-07-26T06:45:42.977Z,7.80
2022-07-26T06:49:48.498Z,7.90
2022-07-26T06:53:56.466Z,7.57
2022-07-26T06:58:06.308Z,7.90
2022-07-26T07:02:12.175Z,7.90
2022-07-26T07:06:17.797Z,8.05
2022-07-26T07:10:27.001Z,7.75
2022-07-26T07:14:34.139Z,6.90
2022-07-26T07:18:39.526Z,7.80
2022-07-26T07:22:44.854Z,6.60
2022-07-26T07:26:52.977Z,7.75
2022-07-26T07:30:58.414Z,6.22
2022-07-26T07:35:03.747Z,6.85
2022-07-26T07:39:18.207Z,6.32
2022-07-26T07:43:26.442Z,6.82
2022-07-26T07:47:33.722Z,6.20
2022-07-26T07:51:39.153Z,5.65
2022-07-26T07:55:46.739Z,5.90
2022-07-26T07:59:55.301Z,6.47
2022-07-26T08:04:01.203Z,6.45
2022-07-26T08:08:06.735Z,7.65
2022-07-26T08:12:14.164Z,5.63
2022-07-26T08:16:22.722Z,6.55
2022-07-26T08:20:30.452Z,5.85
2022-07-26T08:24:36.309Z,5.70
2022-07-26T08:28:47.819Z,6.15
2022-07-26T08:32:56.500Z,5.40
2022-07-26T08:37:16.406Z,6.97
2022-07-26T08:41:23.420Z,6.65
2022-07-26T08:45:30.569Z,6.15
2022-07-26T08:49:38.530Z,6.00
2022-07-26T08:53:43.887Z,5.93
2022-07-26T08:57:49.409Z,6.30
2022-07-26T09:01:56.768Z,5.40
2022-07-26T09:06:15.019Z,6.22
2022-07-26T09:10:20.463Z,5.85
2022-07-26T09:14:38.435Z,6.10
2022-07-26T09:18:43.965Z,5.78
2022-07-26T09:23:06.082Z,5.70
2022-07-26T09:27:13.449Z,6.07
2022-07-26T09:31:26.011Z,4.95
2022-07-26T09:35:51.307Z,6.63
2022-07-26T09:40:03.284Z,6.85
2022-07-26T09:44:23.858Z,6.13
2022-07-26T09:53:10.174Z,6.55
2022-07-26T09:57:21.738Z,5.40
2022-07-26T10:01:27.129Z,6.18
2022-07-26T10:05:32.820Z,6.90
2022-07-26T10:09:45.417Z,6.00
2022-07-26T10:13:53.519Z,6.75
2022-07-26T10:17:58.968Z,6.25
2022-07-26T10:22:25.506Z,7.00
2022-07-26T10:26:45.751Z,5.55
2022-07-26T10:30:53.897Z,6.00
2022-07-26T10:34:59.410Z,6.07
2022-07-26T10:39:11.419Z,6.35
2022-07-26T10:43:40.069Z,6.07
2022-07-26T10:48:14.468Z,7.18
2022-07-26T10:52:26.486Z,6.05
2022-07-26T10:56:34.822Z,6.72
2022-07-26T11:00:40.172Z,6.53
2022-07-26T11:04:51.001Z,9.38
2022-07-26T11:08:56.444Z,6.25
2022-07-26T11:13:03.508Z,5.80
2022-07-26T11:17:09.105Z,5.82
2022-07-26T11:21:20.148Z,6.00
2022-07-26T11:25:25.657Z,6.97
2022-07-26T11:29:40.731Z,6.22
2022-07-26T11:33:49.119Z,5.30
2022-07-26T11:38:11.858Z,5.30
2022-07-26T11:42:19.798Z,5.38
2022-07-26T11:46:25.683Z,5.57
2022-07-26T11:50:31.283Z,5.10
2022-07-26T11:54:48.734Z,5.10
2022-07-26T11:58:57.729Z,5.05
2022-07-26T12:03:03.084Z,5.50
2022-07-26T12:07:13.782Z,5.25
2022-07-26T12:11:23.141Z,4.95
2022-07-26T12:15:29.332Z,5.82
2022-07-26T12:19:35.776Z,5.18
2022-07-26T12:23:45.595Z,5.53
2022-07-26T12:27:53.598Z,5.00
2022-07-26T12:32:11.945Z,5.55
2022-07-26T12:36:27.157Z,5.43
2022-07-26T12:40:42.581Z,5.70
2022-07-26T12:44:50.605Z,5.72
2022-07-26T12:49:00.164Z,5.38
2022-07-26T12:53:08.854Z,5.22
2022-07-26T12:57:14.356Z,5.15
2022-07-26T13:01:22.448Z,5.32
2022-07-26T13:05:27.899Z,5.30
2022-07-26T13:09:33.539Z,5.45
2022-07-26T13:13:38.891Z,5.30
2022-07-26T13:17:46.953Z,5.97
2022-07-26T13:21:53.066Z,5.70
2022-07-26T13:25:58.687Z,4.80
2022-07-26T13:30:05.545Z,5.28
2022-07-26T13:34:14.162Z,5.15
2022-07-26T13:38:21.614Z,5.93
2022-07-26T13:42:27.124Z,5.10
2022-07-26T13:46:33.692Z,5.45
2022-07-26T13:50:41.908Z,5.90
2022-07-26T13:54:47.316Z,5.80
2022-07-26T13:58:52.778Z,6.35
2022-07-26T14:03:01.029Z,5.90
2022-07-26T14:07:08.994Z,6.35
2022-07-26T14:11:14.523Z,6.05
2022-07-26T14:15:23.168Z,6.25
2022-07-26T14:19:28.945Z,6.50
2022-07-26T14:23:36.961Z,6.57
2022-07-26T14:27:42.694Z,5.97
2022-07-26T14:31:48.193Z,6.43
2022-07-26T14:35:53.687Z,6.68
2022-07-26T14:40:01.762Z,6.32
2022-07-26T14:44:08.184Z,6.65
2022-07-26T14:48:26.824Z,6.20
2022-07-26T14:52:40.644Z,6.10
2022-07-26T14:56:49.209Z,6.35
2022-07-26T15:00:55.553Z,6.15
2022-07-26T15:05:02.062Z,7.00
2022-07-26T15:09:07.692Z,6.20
2022-07-26T15:13:16.075Z,6.03
2022-07-26T15:17:21.592Z,8.30
2022-07-26T15:21:27.433Z,7.15
2022-07-26T15:25:32.804Z,6.30
2022-07-26T15:29:41.119Z,6.22
2022-07-26T15:33:48.461Z,6.03
2022-07-26T15:37:53.953Z,7.10
2022-07-26T15:42:03.896Z,8.05
2022-07-26T15:46:14.817Z,7.43
2022-07-26T15:50:21.507Z,6.55
2022-07-26T15:54:29.526Z,5.60
2022-07-26T15:58:35.033Z,5.90
2022-07-26T16:02:44.351Z,6.30
2022-07-26T16:06:50.106Z,6.07
2022-07-26T16:10:58.039Z,6.75
2022-07-26T16:15:04.309Z,6.57
2022-07-26T16:19:12.899Z,6.20
2022-07-26T16:23:18.720Z,5.82
2022-07-26T16:27:28.467Z,6.32
2022-07-26T16:31:34.215Z,6.38
2022-07-26T16:35:42.374Z,6.75
2022-07-26T16:39:47.892Z,7.25
2022-07-26T16:43:53.349Z,6.30
2022-07-26T16:48:00.082Z,7.40
2022-07-26T16:52:09.291Z,6.93
2022-07-26T16:56:14.866Z,6.80
2022-07-26T17:00:22.454Z,6.07
2022-07-26T17:04:27.891Z,6.82
2022-07-26T17:08:36.314Z,6.78
2022-07-26T17:12:42.702Z,6.85
2022-07-26T17:16:50.327Z,7.20
2022-07-26T17:20:55.745Z,7.03
2022-07-26T17:25:03.750Z,7.00
2022-07-26T17:29:09.572Z,6.38
2022-07-26T17:33:15.254Z,6.80
2022-07-26T17:37:21.832Z,7.35
2022-07-26T17:41:32.632Z,7.47
2022-07-26T17:45:38.327Z,7.53
2022-07-26T17:49:43.894Z,6.00
2022-07-26T17:53:53.471Z,7.32
2022-07-26T17:58:01.684Z,6.93
2022-07-26T18:02:07.176Z,7.40
2022-07-26T18:06:12.864Z,8.45
2022-07-26T18:10:18.432Z,7.88
2022-07-26T18:14:26.476Z,8.23
2022-07-26T18:18:31.822Z,7.72
2022-07-26T18:22:37.254Z,8.07
2022-07-26T18:26:43.050Z,8.15
2022-07-26T18:30:51.129Z,9.02
2022-07-26T18:34:56.581Z,9.43
2022-07-26T18:39:02.539Z,8.77
2022-07-26T18:43:08.089Z,8.70
2022-07-26T18:47:16.107Z,9.18
2022-07-26T18:51:22.177Z,9.38
2022-07-26T18:55:32.169Z,9.00
2022-07-26T18:59:39.699Z,9.07
2022-07-26T19:03:47.855Z,8.70
2022-07-26T19:07:54.100Z,8.98
2022-07-26T19:11:59.794Z,11.07
2022-07-26T19:16:05.274Z,10.43
2022-07-26T19:20:14.845Z,10.38
2022-07-26T19:24:20.829Z,10.70
2022-07-26T19:28:29.250Z,11.27
2022-07-26T19:32:36.665Z,10.10
2022-07-26T19:36:46.325Z,10.30
2022-07-26T19:40:56.991Z,10.82
2022-07-26T19:45:04.042Z,10.90
2022-07-26T19:49:11.283Z,10.20
2022-07-26T19:53:19.567Z,10.95
2022-07-26T19:57:27.854Z,10.98
2022-07-26T20:01:41.606Z,11.18
2022-07-26T20:05:47.357Z,8.40
2022-07-26T20:09:55.499Z,8.13
2022-07-26T20:14:19.412Z,8.90
2022-07-26T20:18:28.864Z,8.77
2022-07-26T20:22:34.359Z,8.07
2022-07-26T20:26:43.960Z,9.60
2022-07-26T20:30:51.786Z,8.27
2022-07-26T20:34:57.625Z,7.80
2022-07-26T20:39:03.383Z,7.32
2022-07-26T20:43:11.395Z,9.23
2022-07-26T20:47:19.188Z,8.57
2022-07-26T20:51:27.310Z,7.35
2022-07-26T20:55:32.958Z,7.38
2022-07-26T20:59:41.077Z,8.10
2022-07-26T21:03:47.647Z,8.20
2022-07-26T21:07:58.797Z,8.73
2022-07-26T21:12:05.077Z,9.40
2022-07-26T21:16:14.214Z,8.75
2022-07-26T21:20:20.210Z,8.30
2022-07-26T21:24:26.235Z,9.45
2022-07-26T21:28:31.740Z,9.73
2022-07-26T21:32:39.835Z,9.65
2022-07-26T21:36:45.252Z,9.80
2022-07-26T21:40:51.620Z,9.63
2022-07-26T21:44:56.976Z,10.15
2022-07-26T21:49:05.085Z,10.05
2022-07-26T21:53:10.511Z,11.27
2022-07-26T21:57:15.914Z,10.68
2022-07-26T22:01:21.299Z,10.27
2022-07-26T22:05:38.390Z,10.65
2022-07-26T22:09:43.794Z,10.07
2022-07-26T22:13:49.164Z,10.68
2022-07-26T22:17:55.225Z,11.55
2022-07-26T22:22:05.780Z,10.40
2022-07-26T22:26:11.141Z,10.03
2022-07-26T22:30:18.388Z,11.40
2022-07-26T22:34:23.715Z,10.77
2022-07-26T22:38:31.719Z,11.50
2022-07-26T22:42:37.093Z,11.57
2022-07-26T22:46:42.556Z,12.35
2022-07-26T22:50:48.063Z,11.70
2022-07-26T22:54:56.069Z,12.45
2022-07-26T22:59:01.471Z,12.20
2022-07-26T23:03:11.828Z,11.07
2022-07-26T23:07:25.838Z,10.77
2022-07-26T23:11:33.862Z,11.10
2022-07-26T23:15:39.380Z,9.60
2022-07-26T23:19:45.087Z,8.02
2022-07-26T23:23:50.578Z,7.80
2022-07-26T23:27:59.379Z,7.82
2022-07-26T23:32:05.171Z,7.50
2022-07-26T23:36:10.790Z,8.32
2022-07-26T23:40:16.458Z,10.07
2022-07-26T23:44:24.531Z,8.23
2022-07-26T23:48:30.022Z,8.82
2022-07-26T23:52:35.430Z,9.30
2022-07-26T23:56:40.781Z,9.18
